Time,TemperatureF,DewpointF,PressureIn,WindDirection,WindDirectionDegrees,WindSpeedMPH,WindSpeedGustMPH,Humidity,HourlyPrecipIn,Conditions,Clouds,dailyrainin,SoftwareType,DateUTC
2013-03-15 00:13:00,28.5,16.0,30.34,SSE,155,0.0,0.0,61,0.00,,,0.00,weatherlink.com 1.10,2013-03-15 04:13:00,
2013-03-15 00:28:00,27.8,17.0,30.34,SSE,155,0.0,0.0,64,0.00,,,0.00,weatherlink.com 1.10,2013-03-15 04:28:00,
2013-03-15 00:43:00,27.9,17.0,30.34,SSE,155,0.0,1.0,65,0.00,,,0.00,weatherlink.com 1.10,2013-03-15 04:43:00,
2013-03-15 00:58:00,27.3,18.0,30.33,SSE,155,0.0,0.0,68,0.00,,,0.00,weatherlink.com 1.10,2013-03-15 04:58:00,
2013-03-15 01:13:00,27.6,18.0,30.32,SSE,147,0.0,1.0,68,0.00,,,0.00,weatherlink.com 1.10,2013-03-15 05:13:00,
2013-03-15 01:28:00,27.8,19.0,30.31,SSE,168,0.0,1.0,70,0.00,,,0.00,weatherlink.com 1.10,2013-03-15 05:28:00,
2013-03-15 01:44:00,27.8,18.0,30.29,SSE,168,0.0,0.0,67,0.00,,,0.00,weatherlink.com 1.10,2013-03-15 05:44:00,
2013-03-15 01:59:00,27.5,19.0,30.29,SSE,167,0.0,0.0,69,0.00,,,0.00,weatherlink.com 1.10,2013-03-15 05:59:00,
2013-03-15 02:14:00,26.6,18.0,30.29,SSE,168,0.0,0.0,70,0.00,,,0.00,weatherlink.com 1.10,2013-03-15 06:14:00,
2013-03-15 02:29:00,26.7,18.0,30.30,SSE,167,0.0,0.0,71,0.00,,,0.00,weatherlink.com 1.10,2013-03-15 06:29:00,
2013-03-15 02:44:00,26.7,19.0,30.30,SSE,166,0.0,1.0,73,0.00,,,0.00,weatherlink.com 1.10,2013-03-15 06:44:00,
2013-03-15 02:59:00,26.6,19.0,30.30,SE,136,0.0,1.0,73,0.00,,,0.00,weatherlink.com 1.10,2013-03-15 06:59:00,
2013-03-15 03:14:00,27.1,19.0,30.30,SE,146,0.0,1.0,72,0.00,,,0.00,weatherlink.com 1.10,2013-03-15 07:14:00,
2013-03-15 03:29:00,27.4,19.0,30.30,SE,136,0.0,2.0,71,0.00,,,0.00,weatherlink.com 1.10,2013-03-15 07:29:00,
2013-03-15 03:44:00,26.5,19.0,30.29,SE,136,0.0,0.0,74,0.00,,,0.00,weatherlink.com 1.10,2013-03-15 07:44:00,
2013-03-15 03:59:00,26.2,19.0,30.28,SE,136,0.0,0.0,74,0.00,,,0.00,weatherlink.com 1.10,2013-03-15 07:59:00,
2013-03-15 04:14:00,25.3,19.0,30.27,SE,136,0.0,0.0,77,0.00,,,0.00,weatherlink.com 1.10,2013-03-15 08:14:00,
2013-03-15 04:29:00,24.7,19.0,30.27,SE,136,0.0,1.0,79,0.00,,,0.00,weatherlink.com 1.10,2013-03-15 08:29:00,
2013-03-15 04:44:00,24.3,19.0,30.26,SE,136,0.0,0.0,81,0.00,,,0.00,weatherlink.com 1.10,2013-03-15 08:44:00,
2013-03-15 04:59:00,24.3,19.0,30.26,SE,136,0.0,1.0,81,0.00,,,0.00,weatherlink.com 1.10,2013-03-15 08:59:00,
2013-03-15 05:14:00,25.1,20.0,30.26,SE,136,0.0,1.0,80,0.00,,,0.00,weatherlink.com 1.10,2013-03-15 09:14:00,
2013-03-15 05:29:00,25.4,20.0,30.26,SE,136,0.0,0.0,81,0.00,,,0.00,weatherlink.com 1.10,2013-03-15 09:29:00,
2013-03-15 05:44:00,24.3,20.0,30.26,SE,136,0.0,0.0,84,0.00,,,0.00,weatherlink.com 1.10,2013-03-15 09:44:00,
2013-03-15 05:59:00,24.6,20.0,30.26,SE,136,0.0,0.0,83,0.00,,,0.00,weatherlink.com 1.10,2013-03-15 09:59:00,
2013-03-15 06:15:00,25.4,22.0,30.26,SE,136,0.0,0.0,86,0.00,,,0.00,weatherlink.com 1.10,2013-03-15 10:15:00,
2013-03-15 06:29:00,25.9,22.0,30.26,SE,136,0.0,1.0,86,0.00,,,0.00,weatherlink.com 1.10,2013-03-15 10:29:00,
2013-03-15 06:44:00,26.3,22.0,30.25,SE,136,0.0,0.0,83,0.00,,,0.00,weatherlink.com 1.10,2013-03-15 10:44:00,
2013-03-15 06:59:00,26.5,22.0,30.25,SE,136,0.0,0.0,84,0.00,,,0.00,weatherlink.com 1.10,2013-03-15 10:59:00,
2013-03-15 07:14:00,25.7,22.0,30.26,SE,136,0.0,0.0,85,0.00,,,0.00,weatherlink.com 1.10,2013-03-15 11:14:00,
2013-03-15 07:29:00,25.1,21.0,30.25,SE,136,0.0,0.0,85,0.00,,,0.00,weatherlink.com 1.10,2013-03-15 11:29:00,
2013-03-15 07:44:00,24.7,21.0,30.25,SE,136,0.0,1.0,85,0.00,,,0.00,weatherlink.com 1.10,2013-03-15 11:44:00,
2013-03-15 07:59:00,24.6,20.0,30.24,SE,136,0.0,0.0,84,0.00,,,0.00,weatherlink.com 1.10,2013-03-15 11:59:00,
2013-03-15 08:14:00,24.4,20.0,30.25,SE,136,0.0,0.0,84,0.00,,,0.00,weatherlink.com 1.10,2013-03-15 12:14:00,
2013-03-15 08:29:00,24.6,20.0,30.24,SE,136,0.0,0.0,84,0.00,,,0.00,weatherlink.com 1.10,2013-03-15 12:29:00,
2013-03-15 08:44:00,25.4,21.0,30.23,SSE,158,0.0,0.0,83,0.00,,,0.00,weatherlink.com 1.10,2013-03-15 12:44:00,
2013-03-15 08:59:00,28.0,22.0,30.23,SSE,159,0.0,0.0,78,0.00,,,0.00,weatherlink.com 1.10,2013-03-15 12:59:00,
2013-03-15 09:14:00,31.1,24.0,30.23,SE,142,0.0,1.0,75,0.00,,,0.00,weatherlink.com 1.10,2013-03-15 13:14:00,
2013-03-15 09:29:00,33.8,26.0,30.23,ESE,121,0.0,1.0,73,0.00,,,0.00,weatherlink.com 1.10,2013-03-15 13:29:00,
2013-03-15 09:44:00,36.8,26.0,30.23,SSE,155,0.0,1.0,66,0.00,,,0.00,weatherlink.com 1.10,2013-03-15 13:44:00,
2013-03-15 09:59:00,37.5,25.0,30.22,NW,315,0.0,4.0,62,0.00,,,0.00,weatherlink.com 1.10,2013-03-15 13:59:00,
2013-03-15 10:15:00,38.8,27.0,30.21,SW,228,1.0,2.0,63,0.00,,,0.00,weatherlink.com 1.10,2013-03-15 14:15:00,
2013-03-15 10:30:00,40.3,28.0,30.21,West,262,0.0,3.0,62,0.00,,,0.00,weatherlink.com 1.10,2013-03-15 14:30:00,
2013-03-15 11:00:00,42.3,28.0,30.19,SE,127,1.0,3.0,58,0.00,,,0.00,weatherlink.com 1.10,2013-03-15 15:00:00,
2013-03-15 11:15:00,43.6,30.0,30.18,South,169,1.0,3.0,58,0.00,,,0.00,weatherlink.com 1.10,2013-03-15 15:15:00,
2013-03-15 11:30:00,45.1,30.0,30.17,South,190,2.0,4.0,56,0.00,,,0.00,weatherlink.com 1.10,2013-03-15 15:30:00,
2013-03-15 11:45:00,46.9,31.0,30.16,NE,51,1.0,6.0,54,0.00,,,0.00,weatherlink.com 1.10,2013-03-15 15:45:00,
2013-03-15 12:00:00,48.4,32.0,30.15,WNW,299,3.0,6.0,54,0.00,,,0.00,weatherlink.com 1.10,2013-03-15 16:00:00,
2013-03-15 12:15:00,50.3,33.0,30.14,South,191,5.0,6.0,52,0.00,,,0.00,weatherlink.com 1.10,2013-03-15 16:15:00,
2013-03-15 12:30:00,52.1,34.0,30.13,WSW,241,0.0,11.0,50,0.00,,,0.00,weatherlink.com 1.10,2013-03-15 16:30:00,
2013-03-15 12:45:00,52.9,35.0,30.12,SSE,167,12.0,14.0,51,0.00,,,0.00,weatherlink.com 1.10,2013-03-15 16:45:00,
2013-03-15 13:00:00,53.5,34.0,30.11,South,179,10.0,15.0,47,0.00,,,0.00,weatherlink.com 1.10,2013-03-15 17:00:00,
2013-03-15 13:15:00,53.7,34.0,30.11,SSW,200,3.0,15.0,48,0.00,,,0.00,weatherlink.com 1.10,2013-03-15 17:15:00,
2013-03-15 13:30:00,54.2,34.0,30.10,SSW,210,5.0,13.0,47,0.00,,,0.00,weatherlink.com 1.10,2013-03-15 17:30:00,
2013-03-15 13:45:00,55.0,34.0,30.09,South,187,6.0,12.0,46,0.00,,,0.00,weatherlink.com 1.10,2013-03-15 17:45:00,
2013-03-15 14:01:00,55.1,34.0,30.08,SSW,204,11.0,14.0,46,0.00,,,0.00,weatherlink.com 1.10,2013-03-15 18:01:00,
2013-03-15 14:31:00,55.9,35.0,30.07,South,177,6.0,10.0,46,0.00,,,0.00,weatherlink.com 1.10,2013-03-15 18:31:00,
2013-03-15 15:01:00,57.2,36.0,30.05,SE,138,3.0,12.0,45,0.00,,,0.00,weatherlink.com 1.10,2013-03-15 19:01:00,
2013-03-15 15:46:00,59.3,37.0,30.02,SSW,211,7.0,14.0,43,0.00,,,0.00,weatherlink.com 1.10,2013-03-15 19:46:00,
2013-03-15 16:01:00,59.6,36.0,30.02,WSW,252,8.0,13.0,42,0.00,,,0.00,weatherlink.com 1.10,2013-03-15 20:01:00,
2013-03-15 16:31:00,60.3,36.0,30.02,SE,142,2.0,11.0,40,0.00,,,0.00,weatherlink.com 1.10,2013-03-15 20:31:00,
2013-03-15 16:46:00,60.3,34.0,30.01,NNE,15,6.0,12.0,38,0.00,,,0.00,weatherlink.com 1.10,2013-03-15 20:46:00,
2013-03-15 17:01:00,60.6,35.0,30.01,SSW,205,3.0,14.0,38,0.00,,,0.00,weatherlink.com 1.10,2013-03-15 21:01:00,
2013-03-15 17:46:00,60.7,35.0,30.00,NW,326,2.0,11.0,39,0.00,,,0.00,weatherlink.com 1.10,2013-03-15 21:46:00,
2013-03-15 18:01:00,60.5,35.0,30.00,SW,229,5.0,9.0,38,0.00,,,0.00,weatherlink.com 1.10,2013-03-15 22:01:00,
2013-03-15 18:31:00,60.0,35.0,29.99,SW,233,0.0,4.0,39,0.00,,,0.00,weatherlink.com 1.10,2013-03-15 22:31:00,
2013-03-15 18:46:00,59.7,34.0,29.99,SSW,200,0.0,6.0,39,0.00,,,0.00,weatherlink.com 1.10,2013-03-15 22:46:00,
2013-03-15 19:01:00,59.3,34.0,29.98,ESE,120,1.0,6.0,39,0.00,,,0.00,weatherlink.com 1.10,2013-03-15 23:01:00,
2013-03-15 19:31:00,57.9,34.0,29.98,SSE,151,1.0,1.0,40,0.00,,,0.00,weatherlink.com 1.10,2013-03-15 23:31:00,
2013-03-15 19:46:00,57.2,33.0,29.99,SE,142,0.0,1.0,41,0.00,,,0.00,weatherlink.com 1.10,2013-03-15 23:46:00,
2013-03-15 20:01:00,55.9,33.0,29.99,SE,143,0.0,0.0,43,0.00,,,0.00,weatherlink.com 1.10,2013-03-16 00:01:00,
2013-03-15 20:16:00,55.0,34.0,30.00,SSE,167,0.0,2.0,45,0.00,,,0.00,weatherlink.com 1.10,2013-03-16 00:16:00,
2013-03-15 20:31:00,54.7,35.0,30.00,SSE,165,0.0,1.0,47,0.00,,,0.00,weatherlink.com 1.10,2013-03-16 00:31:00,
2013-03-15 20:46:00,53.3,34.0,30.00,SE,144,0.0,0.0,49,0.00,,,0.00,weatherlink.com 1.10,2013-03-16 00:46:00,
2013-03-15 21:01:00,51.4,34.0,29.99,SE,144,0.0,0.0,52,0.00,,,0.00,weatherlink.com 1.10,2013-03-16 01:01:00,
2013-03-15 21:16:00,50.5,34.0,30.00,SE,144,0.0,0.0,54,0.00,,,0.00,weatherlink.com 1.10,2013-03-16 01:16:00,
2013-03-15 21:31:00,49.9,34.0,29.99,SE,143,0.0,0.0,55,0.00,,,0.00,weatherlink.com 1.10,2013-03-16 01:31:00,
2013-03-15 21:46:00,49.5,34.0,29.99,SE,143,0.0,0.0,56,0.00,,,0.00,weatherlink.com 1.10,2013-03-16 01:46:00,
2013-03-15 22:01:00,48.3,34.0,29.99,SE,143,0.0,1.0,58,0.00,,,0.00,weatherlink.com 1.10,2013-03-16 02:01:00,
2013-03-15 22:16:00,47.9,34.0,29.99,SE,143,0.0,1.0,60,0.00,,,0.00,weatherlink.com 1.10,2013-03-16 02:16:00,
2013-03-15 22:31:00,47.1,34.0,29.99,SE,144,0.0,0.0,61,0.00,,,0.00,weatherlink.com 1.10,2013-03-16 02:31:00,
2013-03-15 22:46:00,45.5,34.0,29.99,SE,143,0.0,0.0,64,0.00,,,0.00,weatherlink.com 1.10,2013-03-16 02:46:00,
2013-03-15 23:01:00,45.5,34.0,29.98,SE,143,0.0,0.0,65,0.00,,,0.00,weatherlink.com 1.10,2013-03-16 03:01:00,
2013-03-15 23:16:00,44.3,34.0,29.98,SE,143,0.0,0.0,66,0.00,,,0.00,weatherlink.com 1.10,2013-03-16 03:16:00,
2013-03-15 23:31:00,44.6,34.0,29.97,SE,143,0.0,1.0,67,0.00,,,0.00,weatherlink.com 1.10,2013-03-16 03:31:00,